sensor_id;sensor_type;location;lat;lon;timestamp;pressure;altitude;pressure_sealevel;temperature
10598;BMP180;5346;48.766;8.674;2023-04-06T00:02:19;94076.00;;;-1.30
10598;BMP180;5346;48.766;8.674;2023-04-06T00:04:53;94096.00;;;-1.20
10598;BMP180;5346;48.766;8.674;2023-04-06T00:07:20;94134.00;;;-1.20
10598;BMP180;5346;48.766;8.674;2023-04-06T00:09:54;94130.00;;;-1.20
10598;BMP180;5346;48.766;8.674;2023-04-06T00:12:28;94083.00;;;-1.20
10598;BMP180;5346;48.766;8.674;2023-04-06T00:15:02;94100.00;;;-1.30
10598;BMP180;5346;48.766;8.674;2023-04-06T00:17:32;94084.00;;;-1.50
10598;BMP180;5346;48.766;8.674;2023-04-06T00:20:06;94057.00;;;-1.30
10598;BMP180;5346;48.766;8.674;2023-04-06T00:22:40;94067.00;;;-1.20
10598;BMP180;5346;48.766;8.674;2023-04-06T00:25:08;94080.00;;;-1.10
10598;BMP180;5346;48.766;8.674;2023-04-06T00:27:43;94085.00;;;-1.10
10598;BMP180;5346;48.766;8.674;2023-04-06T00:30:19;94123.00;;;-1.00
10598;BMP180;5346;48.766;8.674;2023-04-06T00:32:53;94098.00;;;-1.10
10598;BMP180;5346;48.766;8.674;2023-04-06T00:35:27;94073.00;;;-1.10
10598;BMP180;5346;48.766;8.674;2023-04-06T00:38:01;94049.00;;;-1.30
10598;BMP180;5346;48.766;8.674;2023-04-06T00:40:28;94101.00;;;-1.20
10598;BMP180;5346;48.766;8.674;2023-04-06T00:43:02;94056.00;;;-1.30
10598;BMP180;5346;48.766;8.674;2023-04-06T00:45:29;94078.00;;;-1.20
10598;BMP180;5346;48.766;8.674;2023-04-06T00:47:56;94031.00;;;-1.20
10598;BMP180;5346;48.766;8.674;2023-04-06T00:50:31;94068.00;;;-1.10
10598;BMP180;5346;48.766;8.674;2023-04-06T00:53:05;94070.00;;;-1.00
10598;BMP180;5346;48.766;8.674;2023-04-06T00:55:46;94092.00;;;-1.30
10598;BMP180;5346;48.766;8.674;2023-04-06T00:58:13;94056.00;;;-1.20
10598;BMP180;5346;48.766;8.674;2023-04-06T01:00:46;94096.00;;;-1.30
10598;BMP180;5346;48.766;8.674;2023-04-06T01:03:22;94022.00;;;-1.30
10598;BMP180;5346;48.766;8.674;2023-04-06T01:05:55;94079.00;;;-1.30
10598;BMP180;5346;48.766;8.674;2023-04-06T01:08:31;94063.00;;;-1.40
10598;BMP180;5346;48.766;8.674;2023-04-06T01:11:05;94020.00;;;-1.40
10598;BMP180;5346;48.766;8.674;2023-04-06T01:13:33;94089.00;;;-1.30
10598;BMP180;5346;48.766;8.674;2023-04-06T01:16:06;94059.00;;;-1.30
10598;BMP180;5346;48.766;8.674;2023-04-06T01:18:40;94036.00;;;-1.30
10598;BMP180;5346;48.766;8.674;2023-04-06T01:21:09;94070.00;;;-1.40
10598;BMP180;5346;48.766;8.674;2023-04-06T01:23:48;94073.00;;;-1.50
10598;BMP180;5346;48.766;8.674;2023-04-06T01:26:22;94087.00;;;-1.10
10598;BMP180;5346;48.766;8.674;2023-04-06T01:28:56;94049.00;;;-1.30
10598;BMP180;5346;48.766;8.674;2023-04-06T01:31:30;94042.00;;;-1.30
10598;BMP180;5346;48.766;8.674;2023-04-06T01:34:04;94082.00;;;-1.20
10598;BMP180;5346;48.766;8.674;2023-04-06T01:36:38;94072.00;;;-1.40
10598;BMP180;5346;48.766;8.674;2023-04-06T01:39:15;94053.00;;;-1.40
10598;BMP180;5346;48.766;8.674;2023-04-06T01:41:49;94014.00;;;-1.40
10598;BMP180;5346;48.766;8.674;2023-04-06T01:44:18;94070.00;;;-1.20
10598;BMP180;5346;48.766;8.674;2023-04-06T01:46:52;94073.00;;;-1.20
10598;BMP180;5346;48.766;8.674;2023-04-06T01:49:26;94070.00;;;-1.30
10598;BMP180;5346;48.766;8.674;2023-04-06T01:52:00;94028.00;;;-1.20
10598;BMP180;5346;48.766;8.674;2023-04-06T01:54:34;94070.00;;;-1.30
10598;BMP180;5346;48.766;8.674;2023-04-06T01:57:10;94072.00;;;-1.20
10598;BMP180;5346;48.766;8.674;2023-04-06T01:59:43;94053.00;;;-1.30
10598;BMP180;5346;48.766;8.674;2023-04-06T02:02:10;94044.00;;;-1.30
10598;BMP180;5346;48.766;8.674;2023-04-06T02:04:46;94054.00;;;-1.20
10598;BMP180;5346;48.766;8.674;2023-04-06T02:07:27;94045.00;;;-1.20
10598;BMP180;5346;48.766;8.674;2023-04-06T02:10:02;94050.00;;;-1.10
10598;BMP180;5346;48.766;8.674;2023-04-06T02:12:30;94064.00;;;-1.10
10598;BMP180;5346;48.766;8.674;2023-04-06T02:15:03;94026.00;;;-1.20
10598;BMP180;5346;48.766;8.674;2023-04-06T02:17:30;94027.00;;;-1.00
10598;BMP180;5346;48.766;8.674;2023-04-06T02:20:05;94059.00;;;-0.90
10598;BMP180;5346;48.766;8.674;2023-04-06T02:22:32;94059.00;;;-1.10
10598;BMP180;5346;48.766;8.674;2023-04-06T02:25:07;94025.00;;;-0.90
10598;BMP180;5346;48.766;8.674;2023-04-06T02:27:34;94060.00;;;-0.80
10598;BMP180;5346;48.766;8.674;2023-04-06T02:30:10;94013.00;;;-0.40
10598;BMP180;5346;48.766;8.674;2023-04-06T02:32:43;94023.00;;;-0.40
10598;BMP180;5346;48.766;8.674;2023-04-06T02:35:17;94070.00;;;-0.60
10598;BMP180;5346;48.766;8.674;2023-04-06T02:37:44;93994.00;;;-0.80
10598;BMP180;5346;48.766;8.674;2023-04-06T02:40:18;93997.00;;;-0.60
10598;BMP180;5346;48.766;8.674;2023-04-06T02:42:45;94062.00;;;-0.90
10598;BMP180;5346;48.766;8.674;2023-04-06T02:45:19;94035.00;;;-1.20
10598;BMP180;5346;48.766;8.674;2023-04-06T02:47:47;94053.00;;;-1.30
10598;BMP180;5346;48.766;8.674;2023-04-06T02:50:20;94063.00;;;-1.00
10598;BMP180;5346;48.766;8.674;2023-04-06T02:52:55;94024.00;;;-1.00
10598;BMP180;5346;48.766;8.674;2023-04-06T02:55:35;94017.00;;;-1.10
10598;BMP180;5346;48.766;8.674;2023-04-06T02:58:08;94002.00;;;-1.00
10598;BMP180;5346;48.766;8.674;2023-04-06T03:00:42;94019.00;;;-0.90
10598;BMP180;5346;48.766;8.674;2023-04-06T03:03:09;94004.00;;;-1.10
10598;BMP180;5346;48.766;8.674;2023-04-06T03:05:43;94051.00;;;-1.00
10598;BMP180;5346;48.766;8.674;2023-04-06T03:08:10;94049.00;;;-0.90
10598;BMP180;5346;48.766;8.674;2023-04-06T03:10:44;94042.00;;;-0.80
10598;BMP180;5346;48.766;8.674;2023-04-06T03:13:18;94048.00;;;-1.00
10598;BMP180;5346;48.766;8.674;2023-04-06T03:15:52;93985.00;;;-1.00
10598;BMP180;5346;48.766;8.674;2023-04-06T03:18:25;94042.00;;;-1.10
10598;BMP180;5346;48.766;8.674;2023-04-06T03:20:53;94056.00;;;-1.20
10598;BMP180;5346;48.766;8.674;2023-04-06T03:23:29;94038.00;;;-1.00
10598;BMP180;5346;48.766;8.674;2023-04-06T03:25:57;94043.00;;;-0.90
10598;BMP180;5346;48.766;8.674;2023-04-06T03:28:24;94051.00;;;-1.00
10598;BMP180;5346;48.766;8.674;2023-04-06T03:30:58;93972.00;;;-0.90
10598;BMP180;5346;48.766;8.674;2023-04-06T03:33:32;94043.00;;;-0.80
10598;BMP180;5346;48.766;8.674;2023-04-06T03:36:00;94051.00;;;-0.80
10598;BMP180;5346;48.766;8.674;2023-04-06T03:38:33;94032.00;;;-0.80
10598;BMP180;5346;48.766;8.674;2023-04-06T03:41:01;94039.00;;;-0.60
10598;BMP180;5346;48.766;8.674;2023-04-06T03:43:34;93999.00;;;-0.80
10598;BMP180;5346;48.766;8.674;2023-04-06T03:46:02;94049.00;;;-0.80
10598;BMP180;5346;48.766;8.674;2023-04-06T03:48:36;93998.00;;;-0.90
10598;BMP180;5346;48.766;8.674;2023-04-06T03:51:04;94025.00;;;-0.90
10598;BMP180;5346;48.766;8.674;2023-04-06T03:53:37;94053.00;;;-1.30
10598;BMP180;5346;48.766;8.674;2023-04-06T03:56:12;94045.00;;;-1.20
10598;BMP180;5346;48.766;8.674;2023-04-06T03:58:45;94000.00;;;-1.20
10598;BMP180;5346;48.766;8.674;2023-04-06T04:01:19;94005.00;;;-1.30
10598;BMP180;5346;48.766;8.674;2023-04-06T04:03:53;94029.00;;;-1.10
10598;BMP180;5346;48.766;8.674;2023-04-06T04:06:27;94064.00;;;-1.20
10598;BMP180;5346;48.766;8.674;2023-04-06T04:09:02;94067.00;;;-1.10
10598;BMP180;5346;48.766;8.674;2023-04-06T04:11:36;94054.00;;;-0.90
10598;BMP180;5346;48.766;8.674;2023-04-06T04:14:09;94060.00;;;-0.40
10598;BMP180;5346;48.766;8.674;2023-04-06T04:16:37;94007.00;;;-0.40
10598;BMP180;5346;48.766;8.674;2023-04-06T04:19:12;94061.00;;;-0.20
10598;BMP180;5346;48.766;8.674;2023-04-06T04:21:45;94002.00;;;0.20
10598;BMP180;5346;48.766;8.674;2023-04-06T04:24:18;94026.00;;;0.00
10598;BMP180;5346;48.766;8.674;2023-04-06T04:26:45;94076.00;;;-0.10
10598;BMP180;5346;48.766;8.674;2023-04-06T04:29:19;94073.00;;;-0.30
10598;BMP180;5346;48.766;8.674;2023-04-06T04:31:49;94051.00;;;-0.20
10598;BMP180;5346;48.766;8.674;2023-04-06T04:34:23;94061.00;;;-0.20
10598;BMP180;5346;48.766;8.674;2023-04-06T04:36:52;94069.00;;;-0.40
10598;BMP180;5346;48.766;8.674;2023-04-06T04:39:26;94062.00;;;-0.20
10598;BMP180;5346;48.766;8.674;2023-04-06T04:42:00;94054.00;;;-0.40
10598;BMP180;5346;48.766;8.674;2023-04-06T04:44:36;93986.00;;;-0.30
10598;BMP180;5346;48.766;8.674;2023-04-06T04:47:04;94069.00;;;-0.30
10598;BMP180;5346;48.766;8.674;2023-04-06T04:49:40;94066.00;;;-0.10
10598;BMP180;5346;48.766;8.674;2023-04-06T04:52:07;94069.00;;;0.00
10598;BMP180;5346;48.766;8.674;2023-04-06T04:54:47;94053.00;;;0.40
10598;BMP180;5346;48.766;8.674;2023-04-06T04:57:27;94040.00;;;0.30
10598;BMP180;5346;48.766;8.674;2023-04-06T05:00:04;94074.00;;;0.10
10598;BMP180;5346;48.766;8.674;2023-04-06T05:02:32;94053.00;;;0.20
10598;BMP180;5346;48.766;8.674;2023-04-06T05:05:06;94035.00;;;0.20
10598;BMP180;5346;48.766;8.674;2023-04-06T05:07:34;94043.00;;;0.20
10598;BMP180;5346;48.766;8.674;2023-04-06T05:10:01;94038.00;;;0.10
10598;BMP180;5346;48.766;8.674;2023-04-06T05:12:34;94060.00;;;0.10
10598;BMP180;5346;48.766;8.674;2023-04-06T05:15:02;94036.00;;;0.00
10598;BMP180;5346;48.766;8.674;2023-04-06T05:17:36;94078.00;;;0.10
10598;BMP180;5346;48.766;8.674;2023-04-06T05:20:06;94084.00;;;0.10
10598;BMP180;5346;48.766;8.674;2023-04-06T05:22:39;94060.00;;;0.00
10598;BMP180;5346;48.766;8.674;2023-04-06T05:25:14;94063.00;;;-0.10
10598;BMP180;5346;48.766;8.674;2023-04-06T05:27:48;94070.00;;;0.00
10598;BMP180;5346;48.766;8.674;2023-04-06T05:30:23;94041.00;;;0.10
10598;BMP180;5346;48.766;8.674;2023-04-06T05:32:50;94068.00;;;0.10
10598;BMP180;5346;48.766;8.674;2023-04-06T05:35:24;94098.00;;;0.20
10598;BMP180;5346;48.766;8.674;2023-04-06T05:37:52;94056.00;;;0.20
10598;BMP180;5346;48.766;8.674;2023-04-06T05:40:25;94094.00;;;0.30
10598;BMP180;5346;48.766;8.674;2023-04-06T05:42:53;94030.00;;;0.50
10598;BMP180;5346;48.766;8.674;2023-04-06T05:45:26;94056.00;;;0.50
10598;BMP180;5346;48.766;8.674;2023-04-06T05:47:54;94072.00;;;0.70
10598;BMP180;5346;48.766;8.674;2023-04-06T05:50:28;94056.00;;;0.80
10598;BMP180;5346;48.766;8.674;2023-04-06T05:52:55;94062.00;;;0.90
10598;BMP180;5346;48.766;8.674;2023-04-06T05:55:29;94034.00;;;1.00
10598;BMP180;5346;48.766;8.674;2023-04-06T05:58:10;94069.00;;;1.30
10598;BMP180;5346;48.766;8.674;2023-04-06T06:00:48;94074.00;;;1.40
10598;BMP180;5346;48.766;8.674;2023-04-06T06:03:23;94031.00;;;1.50
10598;BMP180;5346;48.766;8.674;2023-04-06T06:05:51;94032.00;;;1.60
10598;BMP180;5346;48.766;8.674;2023-04-06T06:08:24;94108.00;;;1.80
10598;BMP180;5346;48.766;8.674;2023-04-06T06:10:52;94107.00;;;2.00
10598;BMP180;5346;48.766;8.674;2023-04-06T06:13:27;94084.00;;;2.30
10598;BMP180;5346;48.766;8.674;2023-04-06T06:16:01;94114.00;;;2.60
10598;BMP180;5346;48.766;8.674;2023-04-06T06:18:32;94102.00;;;2.70
10598;BMP180;5346;48.766;8.674;2023-04-06T06:21:07;94109.00;;;2.80
10598;BMP180;5346;48.766;8.674;2023-04-06T06:23:36;94085.00;;;3.00
10598;BMP180;5346;48.766;8.674;2023-04-06T06:26:04;94053.00;;;3.30
10598;BMP180;5346;48.766;8.674;2023-04-06T06:28:38;94074.00;;;3.70
10598;BMP180;5346;48.766;8.674;2023-04-06T06:31:06;94114.00;;;4.20
10598;BMP180;5346;48.766;8.674;2023-04-06T06:33:40;94058.00;;;4.90
10598;BMP180;5346;48.766;8.674;2023-04-06T06:36:09;94076.00;;;5.30
10598;BMP180;5346;48.766;8.674;2023-04-06T06:38:44;94100.00;;;5.80
10598;BMP180;5346;48.766;8.674;2023-04-06T06:41:12;94072.00;;;6.30
10598;BMP180;5346;48.766;8.674;2023-04-06T06:43:46;94092.00;;;6.80
10598;BMP180;5346;48.766;8.674;2023-04-06T06:46:14;94124.00;;;6.30
10598;BMP180;5346;48.766;8.674;2023-04-06T06:48:48;94120.00;;;6.70
10598;BMP180;5346;48.766;8.674;2023-04-06T06:51:15;94072.00;;;6.20
10598;BMP180;5346;48.766;8.674;2023-04-06T06:53:45;94122.00;;;6.70
10598;BMP180;5346;48.766;8.674;2023-04-06T06:56:19;94119.00;;;7.20
10598;BMP180;5346;48.766;8.674;2023-04-06T06:59:02;94083.00;;;7.40
10598;BMP180;5346;48.766;8.674;2023-04-06T07:01:37;94123.00;;;7.50
10598;BMP180;5346;48.766;8.674;2023-04-06T07:04:05;94108.00;;;7.50
10598;BMP180;5346;48.766;8.674;2023-04-06T07:06:43;94109.00;;;7.80
10598;BMP180;5346;48.766;8.674;2023-04-06T07:09:11;94119.00;;;7.70
10598;BMP180;5346;48.766;8.674;2023-04-06T07:11:45;94107.00;;;7.60
10598;BMP180;5346;48.766;8.674;2023-04-06T07:14:12;94108.00;;;7.80
10598;BMP180;5346;48.766;8.674;2023-04-06T07:16:45;94090.00;;;7.50
10598;BMP180;5346;48.766;8.674;2023-04-06T07:19:14;94060.00;;;7.90
10598;BMP180;5346;48.766;8.674;2023-04-06T07:21:48;94113.00;;;8.40
10598;BMP180;5346;48.766;8.674;2023-04-06T07:24:17;94066.00;;;8.60
10598;BMP180;5346;48.766;8.674;2023-04-06T07:26:51;94097.00;;;9.30
10598;BMP180;5346;48.766;8.674;2023-04-06T07:29:25;94085.00;;;9.50
10598;BMP180;5346;48.766;8.674;2023-04-06T07:31:59;94091.00;;;9.70
10598;BMP180;5346;48.766;8.674;2023-04-06T07:34:33;94106.00;;;10.00
10598;BMP180;5346;48.766;8.674;2023-04-06T07:37:08;94131.00;;;9.80
10598;BMP180;5346;48.766;8.674;2023-04-06T07:39:36;94120.00;;;9.60
10598;BMP180;5346;48.766;8.674;2023-04-06T07:42:11;94121.00;;;9.70
10598;BMP180;5346;48.766;8.674;2023-04-06T07:44:39;94102.00;;;9.30
10598;BMP180;5346;48.766;8.674;2023-04-06T07:47:13;94133.00;;;10.10
10598;BMP180;5346;48.766;8.674;2023-04-06T07:49:41;94091.00;;;10.00
10598;BMP180;5346;48.766;8.674;2023-04-06T07:52:15;94069.00;;;9.70
10598;BMP180;5346;48.766;8.674;2023-04-06T07:54:55;94094.00;;;9.90
10598;BMP180;5346;48.766;8.674;2023-04-06T07:57:35;94122.00;;;10.00
10598;BMP180;5346;48.766;8.674;2023-04-06T08:00:10;94139.00;;;9.90
10598;BMP180;5346;48.766;8.674;2023-04-06T08:02:45;94090.00;;;9.90
10598;BMP180;5346;48.766;8.674;2023-04-06T08:05:12;94145.00;;;10.50
10598;BMP180;5346;48.766;8.674;2023-04-06T08:07:47;94146.00;;;11.10
10598;BMP180;5346;48.766;8.674;2023-04-06T08:10:23;94144.00;;;11.50
10598;BMP180;5346;48.766;8.674;2023-04-06T08:12:52;94141.00;;;11.70
10598;BMP180;5346;48.766;8.674;2023-04-06T08:15:26;94133.00;;;11.80
10598;BMP180;5346;48.766;8.674;2023-04-06T08:17:54;94138.00;;;12.00
10598;BMP180;5346;48.766;8.674;2023-04-06T08:20:31;94123.00;;;11.30
10598;BMP180;5346;48.766;8.674;2023-04-06T08:22:58;94104.00;;;11.80
10598;BMP180;5346;48.766;8.674;2023-04-06T08:25:35;94130.00;;;11.90
10598;BMP180;5346;48.766;8.674;2023-04-06T08:28:08;94097.00;;;11.60
10598;BMP180;5346;48.766;8.674;2023-04-06T08:30:43;94067.00;;;11.70
10598;BMP180;5346;48.766;8.674;2023-04-06T08:33:17;94105.00;;;11.40
10598;BMP180;5346;48.766;8.674;2023-04-06T08:35:50;94121.00;;;11.40
10598;BMP180;5346;48.766;8.674;2023-04-06T08:38:25;94097.00;;;11.40
10598;BMP180;5346;48.766;8.674;2023-04-06T08:40:52;94112.00;;;12.50
10598;BMP180;5346;48.766;8.674;2023-04-06T08:43:27;94135.00;;;12.40
10598;BMP180;5346;48.766;8.674;2023-04-06T08:46:04;94103.00;;;12.50
10598;BMP180;5346;48.766;8.674;2023-04-06T08:48:42;94139.00;;;12.00
10598;BMP180;5346;48.766;8.674;2023-04-06T08:51:18;94140.00;;;12.20
10598;BMP180;5346;48.766;8.674;2023-04-06T08:53:47;94103.00;;;12.50
10598;BMP180;5346;48.766;8.674;2023-04-06T08:56:28;94135.00;;;13.10
10598;BMP180;5346;48.766;8.674;2023-04-06T08:58:57;94124.00;;;12.40
10598;BMP180;5346;48.766;8.674;2023-04-06T09:01:39;94128.00;;;12.50
10598;BMP180;5346;48.766;8.674;2023-04-06T09:04:15;94138.00;;;12.10
10598;BMP180;5346;48.766;8.674;2023-04-06T09:06:49;94130.00;;;11.60
10598;BMP180;5346;48.766;8.674;2023-04-06T09:09:24;94105.00;;;11.90
10598;BMP180;5346;48.766;8.674;2023-04-06T09:11:53;94133.00;;;12.60
10598;BMP180;5346;48.766;8.674;2023-04-06T09:14:37;94139.00;;;12.20
10598;BMP180;5346;48.766;8.674;2023-04-06T09:17:06;94141.00;;;12.80
10598;BMP180;5346;48.766;8.674;2023-04-06T09:19:47;94138.00;;;13.40
10598;BMP180;5346;48.766;8.674;2023-04-06T09:22:15;94112.00;;;13.10
10598;BMP180;5346;48.766;8.674;2023-04-06T09:24:53;94142.00;;;13.50
10598;BMP180;5346;48.766;8.674;2023-04-06T09:27:35;94109.00;;;13.40
10598;BMP180;5346;48.766;8.674;2023-04-06T09:30:12;94127.00;;;13.70
10598;BMP180;5346;48.766;8.674;2023-04-06T09:32:50;94133.00;;;14.20
10598;BMP180;5346;48.766;8.674;2023-04-06T09:35:24;94103.00;;;13.60
10598;BMP180;5346;48.766;8.674;2023-04-06T09:37:54;94099.00;;;13.60
10598;BMP180;5346;48.766;8.674;2023-04-06T09:40:23;94131.00;;;13.20
10598;BMP180;5346;48.766;8.674;2023-04-06T09:42:58;94142.00;;;13.40
10598;BMP180;5346;48.766;8.674;2023-04-06T09:45:29;94114.00;;;13.60
10598;BMP180;5346;48.766;8.674;2023-04-06T09:48:05;94109.00;;;13.00
10598;BMP180;5346;48.766;8.674;2023-04-06T09:50:39;94112.00;;;14.40
10598;BMP180;5346;48.766;8.674;2023-04-06T09:53:07;94102.00;;;15.10
10598;BMP180;5346;48.766;8.674;2023-04-06T09:55:44;94126.00;;;15.50
10598;BMP180;5346;48.766;8.674;2023-04-06T09:58:20;94125.00;;;14.80
10598;BMP180;5346;48.766;8.674;2023-04-06T10:01:10;94122.00;;;14.80
10598;BMP180;5346;48.766;8.674;2023-04-06T10:04:13;94129.00;;;14.90
10598;BMP180;5346;48.766;8.674;2023-04-06T10:06:51;94133.00;;;15.10
10598;BMP180;5346;48.766;8.674;2023-04-06T10:09:28;94104.00;;;14.10
10598;BMP180;5346;48.766;8.674;2023-04-06T10:12:06;94113.00;;;13.20
10598;BMP180;5346;48.766;8.674;2023-04-06T10:14:41;94125.00;;;12.40
10598;BMP180;5346;48.766;8.674;2023-04-06T10:17:17;94129.00;;;13.70
10598;BMP180;5346;48.766;8.674;2023-04-06T10:20:09;94128.00;;;14.20
10598;BMP180;5346;48.766;8.674;2023-04-06T10:23:13;94130.00;;;14.00
10598;BMP180;5346;48.766;8.674;2023-04-06T10:25:59;94122.00;;;14.80
10598;BMP180;5346;48.766;8.674;2023-04-06T10:28:35;94130.00;;;14.50
10598;BMP180;5346;48.766;8.674;2023-04-06T10:31:10;94101.00;;;14.70
10598;BMP180;5346;48.766;8.674;2023-04-06T10:33:38;94116.00;;;15.20
10598;BMP180;5346;48.766;8.674;2023-04-06T10:36:22;94088.00;;;15.80
10598;BMP180;5346;48.766;8.674;2023-04-06T10:39:02;94107.00;;;16.40
10598;BMP180;5346;48.766;8.674;2023-04-06T10:41:43;94132.00;;;15.40
10598;BMP180;5346;48.766;8.674;2023-04-06T10:44:24;94110.00;;;16.20
10598;BMP180;5346;48.766;8.674;2023-04-06T10:46:59;94114.00;;;15.60
10598;BMP180;5346;48.766;8.674;2023-04-06T10:49:30;94120.00;;;15.90
10598;BMP180;5346;48.766;8.674;2023-04-06T10:52:05;94132.00;;;15.40
10598;BMP180;5346;48.766;8.674;2023-04-06T10:54:46;94122.00;;;15.80
10598;BMP180;5346;48.766;8.674;2023-04-06T10:57:29;94116.00;;;15.50
10598;BMP180;5346;48.766;8.674;2023-04-06T11:00:08;94093.00;;;15.60
10598;BMP180;5346;48.766;8.674;2023-04-06T11:02:49;94075.00;;;16.50
10598;BMP180;5346;48.766;8.674;2023-04-06T11:05:23;94103.00;;;17.60
10598;BMP180;5346;48.766;8.674;2023-04-06T11:07:56;94094.00;;;17.30
10598;BMP180;5346;48.766;8.674;2023-04-06T11:10:30;94075.00;;;18.10
10598;BMP180;5346;48.766;8.674;2023-04-06T11:13:05;94097.00;;;17.90
10598;BMP180;5346;48.766;8.674;2023-04-06T11:15:42;94073.00;;;16.80
10598;BMP180;5346;48.766;8.674;2023-04-06T11:18:17;94064.00;;;16.90
10598;BMP180;5346;48.766;8.674;2023-04-06T11:20:48;94084.00;;;17.70
10598;BMP180;5346;48.766;8.674;2023-04-06T11:23:26;94063.00;;;17.30
10598;BMP180;5346;48.766;8.674;2023-04-06T11:25:54;94069.00;;;18.20
10598;BMP180;5346;48.766;8.674;2023-04-06T11:28:29;94088.00;;;18.00
10598;BMP180;5346;48.766;8.674;2023-04-06T11:31:05;94070.00;;;18.10
10598;BMP180;5346;48.766;8.674;2023-04-06T11:33:40;94052.00;;;19.00
10598;BMP180;5346;48.766;8.674;2023-04-06T11:36:14;94060.00;;;19.50
10598;BMP180;5346;48.766;8.674;2023-04-06T11:38:43;94051.00;;;20.00
10598;BMP180;5346;48.766;8.674;2023-04-06T11:41:17;94075.00;;;19.20
10598;BMP180;5346;48.766;8.674;2023-04-06T11:43:48;94052.00;;;18.20
10598;BMP180;5346;48.766;8.674;2023-04-06T11:46:22;94068.00;;;18.30
10598;BMP180;5346;48.766;8.674;2023-04-06T11:48:50;94058.00;;;17.90
10598;BMP180;5346;48.766;8.674;2023-04-06T11:51:24;94036.00;;;18.80
10598;BMP180;5346;48.766;8.674;2023-04-06T11:53:54;94073.00;;;18.60
10598;BMP180;5346;48.766;8.674;2023-04-06T11:56:30;94105.00;;;16.80
10598;BMP180;5346;48.766;8.674;2023-04-06T11:59:11;94090.00;;;15.80
10598;BMP180;5346;48.766;8.674;2023-04-06T12:01:46;94106.00;;;14.80
10598;BMP180;5346;48.766;8.674;2023-04-06T12:04:13;94092.00;;;14.30
10598;BMP180;5346;48.766;8.674;2023-04-06T12:06:41;94097.00;;;14.40
10598;BMP180;5346;48.766;8.674;2023-04-06T12:09:19;94098.00;;;13.80
10598;BMP180;5346;48.766;8.674;2023-04-06T12:11:53;94028.00;;;13.00
10598;BMP180;5346;48.766;8.674;2023-04-06T12:14:20;94076.00;;;12.50
10598;BMP180;5346;48.766;8.674;2023-04-06T12:16:54;94046.00;;;12.60
10598;BMP180;5346;48.766;8.674;2023-04-06T12:19:29;94088.00;;;13.10
10598;BMP180;5346;48.766;8.674;2023-04-06T12:22:04;94088.00;;;13.10
10598;BMP180;5346;48.766;8.674;2023-04-06T12:24:38;94074.00;;;13.20
10598;BMP180;5346;48.766;8.674;2023-04-06T12:27:11;94077.00;;;14.10
10598;BMP180;5346;48.766;8.674;2023-04-06T12:29:39;94040.00;;;15.00
10598;BMP180;5346;48.766;8.674;2023-04-06T12:32:13;94085.00;;;14.40
10598;BMP180;5346;48.766;8.674;2023-04-06T12:34:40;94062.00;;;14.90
10598;BMP180;5346;48.766;8.674;2023-04-06T12:37:15;94082.00;;;14.30
10598;BMP180;5346;48.766;8.674;2023-04-06T12:39:43;94085.00;;;13.90
10598;BMP180;5346;48.766;8.674;2023-04-06T12:42:19;94074.00;;;13.30
10598;BMP180;5346;48.766;8.674;2023-04-06T12:44:52;94065.00;;;13.10
10598;BMP180;5346;48.766;8.674;2023-04-06T12:47:27;94058.00;;;13.20
10598;BMP180;5346;48.766;8.674;2023-04-06T12:49:55;94086.00;;;12.80
10598;BMP180;5346;48.766;8.674;2023-04-06T12:52:29;94083.00;;;13.60
10598;BMP180;5346;48.766;8.674;2023-04-06T12:55:03;94057.00;;;13.90
10598;BMP180;5346;48.766;8.674;2023-04-06T12:57:45;94056.00;;;13.30
10598;BMP180;5346;48.766;8.674;2023-04-06T13:00:14;94024.00;;;12.50
10598;BMP180;5346;48.766;8.674;2023-04-06T13:02:49;94048.00;;;13.00
10598;BMP180;5346;48.766;8.674;2023-04-06T13:05:17;94021.00;;;13.30
10598;BMP180;5346;48.766;8.674;2023-04-06T13:07:55;94063.00;;;13.90
10598;BMP180;5346;48.766;8.674;2023-04-06T13:10:22;94059.00;;;13.40
10598;BMP180;5346;48.766;8.674;2023-04-06T13:12:57;94066.00;;;12.10
10598;BMP180;5346;48.766;8.674;2023-04-06T13:15:24;94042.00;;;11.30
10598;BMP180;5346;48.766;8.674;2023-04-06T13:17:59;94071.00;;;13.00
10598;BMP180;5346;48.766;8.674;2023-04-06T13:20:27;94071.00;;;13.10
10598;BMP180;5346;48.766;8.674;2023-04-06T13:23:01;94068.00;;;13.00
10598;BMP180;5346;48.766;8.674;2023-04-06T13:25:35;94074.00;;;13.10
10598;BMP180;5346;48.766;8.674;2023-04-06T13:28:11;94078.00;;;13.80
10598;BMP180;5346;48.766;8.674;2023-04-06T13:30:38;94065.00;;;14.10
10598;BMP180;5346;48.766;8.674;2023-04-06T13:33:13;94041.00;;;14.30
10598;BMP180;5346;48.766;8.674;2023-04-06T13:35:48;94064.00;;;14.80
10598;BMP180;5346;48.766;8.674;2023-04-06T13:38:16;94059.00;;;14.80
10598;BMP180;5346;48.766;8.674;2023-04-06T13:40:50;94080.00;;;13.50
10598;BMP180;5346;48.766;8.674;2023-04-06T13:43:18;94069.00;;;12.80
10598;BMP180;5346;48.766;8.674;2023-04-06T13:45:55;94082.00;;;13.00
10598;BMP180;5346;48.766;8.674;2023-04-06T13:48:23;94062.00;;;12.30
10598;BMP180;5346;48.766;8.674;2023-04-06T13:51:10;94045.00;;;11.50
10598;BMP180;5346;48.766;8.674;2023-04-06T13:53:45;94108.00;;;11.50
10598;BMP180;5346;48.766;8.674;2023-04-06T13:56:20;94090.00;;;11.80
10598;BMP180;5346;48.766;8.674;2023-04-06T13:59:03;94054.00;;;12.30
10598;BMP180;5346;48.766;8.674;2023-04-06T14:01:37;94050.00;;;12.10
10598;BMP180;5346;48.766;8.674;2023-04-06T14:04:11;94053.00;;;12.10
10598;BMP180;5346;48.766;8.674;2023-04-06T14:06:45;94036.00;;;12.30
10598;BMP180;5346;48.766;8.674;2023-04-06T14:09:19;94055.00;;;12.40
10598;BMP180;5346;48.766;8.674;2023-04-06T14:11:47;94036.00;;;12.10
10598;BMP180;5346;48.766;8.674;2023-04-06T14:14:22;94052.00;;;11.90
10598;BMP180;5346;48.766;8.674;2023-04-06T14:16:57;94061.00;;;12.20
10598;BMP180;5346;48.766;8.674;2023-04-06T14:19:31;94063.00;;;12.40
10598;BMP180;5346;48.766;8.674;2023-04-06T14:22:06;94054.00;;;12.00
10598;BMP180;5346;48.766;8.674;2023-04-06T14:24:41;94079.00;;;12.70
10598;BMP180;5346;48.766;8.674;2023-04-06T14:27:15;94056.00;;;13.10
10598;BMP180;5346;48.766;8.674;2023-04-06T14:29:42;94060.00;;;12.90
10598;BMP180;5346;48.766;8.674;2023-04-06T14:32:17;94066.00;;;12.50
10598;BMP180;5346;48.766;8.674;2023-04-06T14:34:44;94055.00;;;11.90
10598;BMP180;5346;48.766;8.674;2023-04-06T14:37:19;94013.00;;;12.90
10598;BMP180;5346;48.766;8.674;2023-04-06T14:39:47;94044.00;;;13.00
10598;BMP180;5346;48.766;8.674;2023-04-06T14:42:22;93993.00;;;12.50
10598;BMP180;5346;48.766;8.674;2023-04-06T14:44:49;94053.00;;;12.20
10598;BMP180;5346;48.766;8.674;2023-04-06T14:47:23;94038.00;;;12.90
10598;BMP180;5346;48.766;8.674;2023-04-06T14:49:58;94020.00;;;13.00
10598;BMP180;5346;48.766;8.674;2023-04-06T14:52:25;94010.00;;;14.00
10598;BMP180;5346;48.766;8.674;2023-04-06T14:55:06;94010.00;;;15.20
10598;BMP180;5346;48.766;8.674;2023-04-06T14:57:41;94018.00;;;15.60
10598;BMP180;5346;48.766;8.674;2023-04-06T15:00:15;94012.00;;;15.30